Item Display Status Humidity-temperature Sensor

Elevation Above Sea Level: 3 m

 

Deployed Sensor

  • Serial Number: 20109423
  • NDBC Property Number: 41423
  • Start Date: 6/21/2017 (11:34:49 Z)
  • End Date: 8/15/2018 (01:00:00 Z)
Relative Humidity [%]     6 entries per hour
Showing data from 3/7/2018 (01:40:00 Z) to 3/6/2018 (00:00:01 Z)
Previous Next [ Day | 3-Days | 7-Days ]
First Last
Prev [ Day | 3-Days | 7-Days ] Next
First Last

Start Time:     :
End Time:     :     
Time (in GMT) :00 :50 :40 :30 :20 :10
Previous Next [ Day | 3-Days | 7-Days ]
First Last
Prev [ Day | 3-Days | 7-Days ] Next
First Last


123 => good data
MM => data is determined as missing
-- => data not received/configured
Back to Top Back to Top
3/7/2018 02:00 to 1:10 -- -- 85.06 77.52 75.68 74.51
3/7/2018 01:00 to 0:10 73.76 73.95 75.60 76.18 76.24 76.84
3/7/2018 00:00 to 23:10 77.70 76.84 77.99 77.33 79.17 79.25
3/6/2018 23:00 to 22:10 79.80 79.82 79.27 77.23 77.60 77.02
3/6/2018 22:00 to 21:10 77.95 77.45 77.58 77.74 76.82 76.73
3/6/2018 21:00 to 20:10 77.17 77.62 78.96 77.54 76.79 76.96
3/6/2018 20:00 to 19:10 76.53 75.62 76.32 75.13 75.76 77.23
3/6/2018 19:00 to 18:10 78.40 78.09 78.92 78.42 78.53 77.19
3/6/2018 18:00 to 17:10 76.61 77.39 76.32 77.85 77.72 76.03
3/6/2018 17:00 to 16:10 76.79 78.22 79.35 79.39 82.63 83.60
3/6/2018 16:00 to 15:10 82.94 82.71 82.79 82.59 83.53 81.87
3/6/2018 15:00 to 14:10 81.78 82.11 82.24 82.22 81.80 81.29
3/6/2018 14:00 to 13:10 80.59 80.86 81.68 82.26 83.08 82.96
3/6/2018 13:00 to 12:10 83.56 83.64 83.31 83.12 82.59 81.95
3/6/2018 12:00 to 11:10 81.78 82.13 81.84 81.76 81.56 81.80
3/6/2018 11:00 to 10:10 81.27 81.37 82.40 82.15 81.87 81.33
3/6/2018 10:00 to 9:10 81.51 80.53 80.79 80.46 81.12 81.72
3/6/2018 09:00 to 8:10 81.76 82.32 82.69 81.66 81.16 81.12
3/6/2018 08:00 to 7:10 81.41 81.70 82.44 83.06 83.29 83.00
3/6/2018 07:00 to 6:10 82.73 83.06 82.44 82.03 81.27 80.34
3/6/2018 06:00 to 5:10 -- -- -- -- -- --
3/6/2018 05:00 to 4:10 85.58 86.44 87.43 81.04 80.63 80.32
3/6/2018 04:00 to 3:10 79.70 78.98 79.17 80.09 79.10 81.41
3/6/2018 03:00 to 2:10 80.48 80.53 80.98 80.48 80.32 80.50
3/6/2018 02:00 to 1:10 80.32 80.20 81.47 81.33 80.73 80.92
3/6/2018 01:00 to 0:10 80.65 80.46 80.77 80.77 81.27 80.46

 

 

 

Air Temperature [°C]     6 entries per hour
Showing data from 8/15/2018 (00:40:00 Z) to 8/14/2018 (00:00:01 Z)
Previous Next [ Day | 3-Days | 7-Days ]
First Last
Prev [ Day | 3-Days | 7-Days ] Next
First Last

Start Time:     :
End Time:     :     
Time (in GMT) :00 :50 :40 :30 :20 :10
Previous Next [ Day | 3-Days | 7-Days ]
First Last
Prev [ Day | 3-Days | 7-Days ] Next
First Last


123 => good data
MM => data is determined as missing
-- => data not received/configured
Back to Top Back to Top
8/15/2018 01:00 to 0:10 -- -- 28.45 28.55 28.39 28.48
8/15/2018 00:00 to 23:10 28.46 28.46 28.53 28.39 28.44 28.44
8/14/2018 23:00 to 22:10 28.33 28.43 28.34 28.41 28.34 28.41
8/14/2018 22:00 to 21:10 28.22 28.42 28.38 28.40 28.42 28.34
8/14/2018 21:00 to 20:10 28.40 28.39 28.42 28.43 28.42 28.37
8/14/2018 20:00 to 19:10 28.29 28.47 28.55 28.60 28.62 28.61
8/14/2018 19:00 to 18:10 28.74 28.60 28.78 28.56 28.59 28.55
8/14/2018 18:00 to 17:10 28.47 28.31 28.20 28.17 28.03 27.99
8/14/2018 17:00 to 16:10 28.11 28.03 28.14 28.17 28.11 28.17
8/14/2018 16:00 to 15:10 28.14 28.12 28.22 28.13 28.18 28.05
8/14/2018 15:00 to 14:10 28.26 28.12 28.12 28.19 28.23 28.21
8/14/2018 14:00 to 13:10 28.07 28.26 28.27 28.18 28.24 28.32
8/14/2018 13:00 to 12:10 28.44 28.33 28.27 28.28 28.38 28.40
8/14/2018 12:00 to 11:10 28.31 28.30 28.40 28.27 28.28 28.31
8/14/2018 11:00 to 10:10 28.26 28.34 28.43 28.43 28.43 28.58
8/14/2018 10:00 to 9:10 28.54 28.57 28.69 28.70 28.60 28.54
8/14/2018 09:00 to 8:10 28.52 28.68 28.47 28.57 28.71 28.58
8/14/2018 08:00 to 7:10 28.65 28.66 28.57 28.58 28.58 28.59
8/14/2018 07:00 to 6:10 28.75 28.76 28.74 28.55 28.69 28.76
8/14/2018 06:00 to 5:10 28.80 28.86 28.75 28.73 28.73 28.80
8/14/2018 05:00 to 4:10 28.95 28.86 28.78 29.02 28.95 28.96
8/14/2018 04:00 to 3:10 29.11 28.96 28.93 28.92 29.02 28.86
8/14/2018 03:00 to 2:10 28.88 28.97 28.90 29.00 29.00 29.02
8/14/2018 02:00 to 1:10 29.07 28.84 29.06 29.03 29.07 28.99
8/14/2018 01:00 to 0:10 29.05 28.92 29.07 28.90 28.94 28.83